Terminal Aerodrome Forecast
Issued by NWS Jackson, KY

Home | Current Version | Previous Version | Text Only | Print | Product List | Glossary On
Versions: 1 2 3 4 5 6 7 8 9 10 11 12 13 14 15 16 17 18 19 20
684
FTUS43 KJKL 181732
TAFJKL
TAF
KJKL 181732Z 1818/1918 23005KT P6SM -SHRA OVC090
     FM190600 24004KT P6SM VCSH OVC015
     FM191000 VRB03KT P6SM -SHRA OVC010=

USA.gov is the U.S. government's official web portal to all federal, state and local government web resources and services.